Time;durP1;ratioP1;P1;durP2;ratioP2;P2;SDS_P1;SDS_P2;PMS_P1;PMS_P2;Temp;Humidity;BMP_temperature;BMP_pressure;BME280_temperature;BME280_humidity;BME280_pressure;Samples;Min_cycle;Max_cycle;Signal;HPM_P1;HPM_P2
2022/10/27 00:01:59;;;;;;;36.30;23.17;;;;;;;;;;4934322;28;20178;-36
2022/10/27 00:04:25;;;;;;;41.97;25.53;;;;;;;;;;4934895;28;21087;-35
2022/10/27 00:06:51;;;;;;;45.80;25.83;;;;;;;;;;4937696;28;21166;-36
2022/10/27 00:09:17;;;;;;;37.47;24.23;;;;;;;;;;4938309;28;20185;-36
2022/10/27 00:11:43;;;;;;;42.57;25.07;;;;;;;;;;4935476;28;20194;-36
2022/10/27 00:14:09;;;;;;;47.00;26.60;;;;;;;;;;4935451;28;20258;-36
2022/10/27 00:16:35;;;;;;;45.30;25.10;;;;;;;;;;4935261;28;20322;-35
2022/10/27 00:19:01;;;;;;;39.73;23.47;;;;;;;;;;4935880;28;20202;-36
2022/10/27 00:21:27;;;;;;;50.43;27.87;;;;;;;;;;4941016;28;20226;-36
2022/10/27 00:23:53;;;;;;;47.30;24.93;;;;;;;;;;4937125;28;20175;-36
2022/10/27 00:26:21;;;;;;;40.23;23.97;;;;;;;;;;4938784;28;21041;-36
2022/10/27 00:28:47;;;;;;;46.53;25.27;;;;;;;;;;4941933;28;20229;-36
2022/10/27 00:31:13;;;;;;;46.03;27.23;;;;;;;;;;4938819;28;20197;-36
2022/10/27 00:33:40;;;;;;;38.50;24.40;;;;;;;;;;4940983;28;20801;-36
2022/10/27 00:36:11;;;;;;;51.17;27.13;;;;;;;;;;4942938;28;20174;-36
2022/10/27 00:38:37;;;;;;;50.10;27.43;;;;;;;;;;4938268;28;20198;-36
2022/10/27 00:41:04;;;;;;;40.33;25.97;;;;;;;;;;4938829;28;20183;-36
2022/10/27 00:43:31;;;;;;;48.80;28.00;;;;;;;;;;4941292;28;20182;-36
2022/10/27 00:46:01;;;;;;;43.93;25.07;;;;;;;;;;4941306;28;20276;-36
2022/10/27 00:48:28;;;;;;;43.60;25.73;;;;;;;;;;4941182;28;20174;-35
2022/10/27 00:50:54;;;;;;;39.90;24.80;;;;;;;;;;4936217;28;20189;-36
2022/10/27 00:53:20;;;;;;;40.50;24.63;;;;;;;;;;4939244;28;20568;-36
2022/10/27 00:55:46;;;;;;;40.47;24.90;;;;;;;;;;4942475;28;20900;-36
2022/10/27 00:58:15;;;;;;;39.17;24.00;;;;;;;;;;4944529;28;20261;-36
2022/10/27 01:00:41;;;;;;;41.73;24.83;;;;;;;;;;4937829;28;20255;-35
2022/10/27 01:03:09;;;;;;;34.70;22.67;;;;;;;;;;4940774;28;20210;-36
2022/10/27 01:05:35;;;;;;;48.40;24.90;;;;;;;;;;4941333;28;20186;-36
2022/10/27 01:08:03;;;;;;;43.57;26.17;;;;;;;;;;4939707;28;20182;-36
2022/10/27 01:10:29;;;;;;;39.67;23.80;;;;;;;;;;4943601;28;21078;-36
2022/10/27 01:12:55;;;;;;;43.30;22.83;;;;;;;;;;4941960;28;20216;-36
2022/10/27 01:15:24;;;;;;;42.37;25.67;;;;;;;;;;4939744;28;21105;-36
2022/10/27 01:18:11;;;;;;;47.27;25.70;;;;;;;;;;4936796;28;20214;-36
2022/10/27 01:21:12;;;;;;;39.67;24.67;;;;;;;;;;4912098;28;20238;-36
2022/10/27 01:23:48;;;;;;;37.33;24.67;;;;;;;;;;4919270;28;20294;-36
2022/10/27 01:26:20;;;;;;;40.07;24.73;;;;;;;;;;4936608;28;21058;-36
2022/10/27 01:28:52;;;;;;;44.80;24.70;;;;;;;;;;4942847;28;20186;-35
2022/10/27 01:31:21;;;;;;;51.37;28.13;;;;;;;;;;4939071;28;20175;-36
2022/10/27 01:33:59;;;;;;;42.07;26.27;;;;;;;;;;4943738;28;20195;-37
2022/10/27 01:36:33;;;;;;;47.47;28.40;;;;;;;;;;4941407;28;20889;-36
2022/10/27 01:39:04;;;;;;;50.53;29.53;;;;;;;;;;4943906;28;20182;-36
2022/10/27 01:41:32;;;;;;;44.10;25.23;;;;;;;;;;4936851;28;20199;-36
2022/10/27 01:44:01;;;;;;;42.67;24.67;;;;;;;;;;4936445;28;20214;-35
2022/10/27 01:46:28;;;;;;;38.37;25.00;;;;;;;;;;4941975;28;20277;-35
2022/10/27 01:48:54;;;;;;;50.73;26.20;;;;;;;;;;4940428;28;20264;-36
2022/10/27 01:51:20;;;;;;;39.17;24.73;;;;;;;;;;4934904;28;20167;-36
2022/10/27 01:53:48;;;;;;;47.53;26.97;;;;;;;;;;4942175;28;20181;-36
2022/10/27 01:56:22;;;;;;;47.97;26.80;;;;;;;;;;4941446;28;21009;-36
2022/10/27 01:58:55;;;;;;;44.87;26.77;;;;;;;;;;4941137;28;21025;-36
2022/10/27 02:01:39;;;;;;;40.10;26.13;;;;;;;;;;4935955;28;20919;-36
2022/10/27 02:04:21;;;;;;;40.00;25.30;;;;;;;;;;4940572;28;20178;-36
2022/10/27 02:06:56;;;;;;;48.40;26.87;;;;;;;;;;4940522;28;20182;-36
2022/10/27 02:09:41;;;;;;;41.90;25.77;;;;;;;;;;4938084;28;20201;-36
2022/10/27 02:12:13;;;;;;;48.60;28.80;;;;;;;;;;4940890;28;20186;-35
2022/10/27 02:14:41;;;;;;;45.57;27.47;;;;;;;;;;4940093;28;20189;-37
2022/10/27 02:17:09;;;;;;;47.67;29.43;;;;;;;;;;4935583;28;20189;-35
2022/10/27 02:19:36;;;;;;;48.03;29.23;;;;;;;;;;4939937;28;20249;-35
2022/10/27 02:22:03;;;;;;;46.47;27.37;;;;;;;;;;4937090;28;20183;-35
2022/10/27 02:24:29;;;;;;;52.90;31.30;;;;;;;;;;4938504;28;20171;-34
2022/10/27 02:26:58;;;;;;;62.23;32.93;;;;;;;;;;4941730;28;20162;-35
2022/10/27 02:29:45;;;;;;;65.27;36.40;;;;;;;;;;4937419;28;21527;-35
2022/10/27 02:32:12;;;;;;;49.57;29.47;;;;;;;;;;4937502;28;20167;-34
2022/10/27 02:34:39;;;;;;;61.20;32.07;;;;;;;;;;4936861;28;20563;-35
2022/10/27 02:37:05;;;;;;;45.70;29.30;;;;;;;;;;4935936;28;20171;-36
2022/10/27 02:39:32;;;;;;;49.07;28.90;;;;;;;;;;4938204;28;20207;-35
2022/10/27 02:41:58;;;;;;;53.17;32.27;;;;;;;;;;4941040;28;20920;-35
2022/10/27 02:44:24;;;;;;;54.87;32.53;;;;;;;;;;4932440;28;20168;-36
2022/10/27 02:46:50;;;;;;;52.77;30.80;;;;;;;;;;4937516;28;20175;-36
2022/10/27 02:49:16;;;;;;;55.60;32.10;;;;;;;;;;4943493;28;20178;-34
2022/10/27 02:51:42;;;;;;;60.40;32.53;;;;;;;;;;4932887;28;20171;-36
2022/10/27 02:54:08;;;;;;;58.40;34.03;;;;;;;;;;4937611;28;20249;-36
2022/10/27 02:56:34;;;;;;;66.00;38.13;;;;;;;;;;4933844;28;20186;-36
2022/10/27 02:59:00;;;;;;;61.73;35.77;;;;;;;;;;4936444;28;20191;-36
2022/10/27 03:01:26;;;;;;;55.40;33.07;;;;;;;;;;4934426;28;20278;-36
2022/10/27 03:03:52;;;;;;;74.07;37.57;;;;;;;;;;4936617;28;20171;-35
2022/10/27 03:06:18;;;;;;;77.33;39.93;;;;;;;;;;4936873;28;21064;-35
2022/10/27 03:08:44;;;;;;;66.30;39.13;;;;;;;;;;4938843;28;21113;-35
2022/10/27 03:11:10;;;;;;;76.00;41.23;;;;;;;;;;4945305;28;20178;-38
2022/10/27 03:13:36;;;;;;;61.90;38.77;;;;;;;;;;4940920;28;20179;-35
2022/10/27 03:16:02;;;;;;;76.13;42.80;;;;;;;;;;4940765;28;20178;-35
2022/10/27 03:18:28;;;;;;;77.90;42.10;;;;;;;;;;4940577;28;20337;-35
2022/10/27 03:20:54;;;;;;;83.30;44.03;;;;;;;;;;4938639;28;21207;-35
2022/10/27 03:23:21;;;;;;;88.27;45.40;;;;;;;;;;4937808;28;20383;-35
2022/10/27 03:25:47;;;;;;;71.13;41.40;;;;;;;;;;4940678;28;20171;-34
2022/10/27 03:28:13;;;;;;;74.87;44.33;;;;;;;;;;4941811;28;20190;-35
2022/10/27 03:30:39;;;;;;;76.00;42.97;;;;;;;;;;4942072;28;20402;-34
2022/10/27 03:33:05;;;;;;;84.03;44.60;;;;;;;;;;4937093;28;20167;-35
2022/10/27 03:35:31;;;;;;;90.70;46.07;;;;;;;;;;4942859;28;20170;-35
2022/10/27 03:37:58;;;;;;;78.57;44.10;;;;;;;;;;4941128;28;20213;-35
2022/10/27 03:40:25;;;;;;;71.07;41.23;;;;;;;;;;4942572;28;20167;-36
2022/10/27 03:42:56;;;;;;;79.70;42.60;;;;;;;;;;4937893;28;20171;-35
2022/10/27 03:45:22;;;;;;;73.73;41.97;;;;;;;;;;4936005;28;20175;-35
2022/10/27 03:47:48;;;;;;;79.57;43.53;;;;;;;;;;4939621;28;20179;-35
2022/10/27 03:50:14;;;;;;;85.40;44.03;;;;;;;;;;4933023;28;21318;-36
2022/10/27 03:52:41;;;;;;;73.27;43.20;;;;;;;;;;4935484;28;20210;-36
2022/10/27 03:55:08;;;;;;;81.67;44.77;;;;;;;;;;4938402;28;20198;-35
2022/10/27 03:57:34;;;;;;;93.77;47.67;;;;;;;;;;4937159;28;20174;-35
2022/10/27 04:00:00;;;;;;;79.03;44.07;;;;;;;;;;4937807;28;21695;-36
2022/10/27 04:02:26;;;;;;;85.57;44.63;;;;;;;;;;4932369;28;20966;-36
2022/10/27 04:04:55;;;;;;;90.20;46.47;;;;;;;;;;4936691;28;20954;-36
2022/10/27 04:07:21;;;;;;;81.67;44.63;;;;;;;;;;4952253;28;21115;-35
2022/10/27 04:09:47;;;;;;;73.97;42.50;;;;;;;;;;4939265;28;20278;-36
2022/10/27 04:12:13;;;;;;;75.33;43.37;;;;;;;;;;4937541;28;20186;-36
2022/10/27 04:14:39;;;;;;;76.43;41.63;;;;;;;;;;4937646;28;20190;-35
2022/10/27 04:17:05;;;;;;;69.80;41.03;;;;;;;;;;4934577;28;20185;-35
2022/10/27 04:19:31;;;;;;;80.60;44.53;;;;;;;;;;4938625;28;21054;-35
2022/10/27 04:21:57;;;;;;;67.07;39.63;;;;;;;;;;4928951;28;20171;-35
2022/10/27 04:24:23;;;;;;;79.17;44.33;;;;;;;;;;4936898;28;20179;-36
2022/10/27 04:26:49;;;;;;;74.03;43.40;;;;;;;;;;4939079;28;20171;-36
2022/10/27 04:29:15;;;;;;;80.27;43.47;;;;;;;;;;4936834;28;20277;-35
2022/10/27 04:31:42;;;;;;;77.50;42.53;;;;;;;;;;4931544;28;21000;-36
2022/10/27 04:34:08;;;;;;;74.13;44.70;;;;;;;;;;4934075;28;20316;-35
2022/10/27 04:36:34;;;;;;;78.97;42.40;;;;;;;;;;4935993;28;21905;-36
2022/10/27 04:39:00;;;;;;;73.00;42.07;;;;;;;;;;4929626;28;20206;-35
2022/10/27 04:41:26;;;;;;;81.57;44.03;;;;;;;;;;4933364;28;21036;-36
2022/10/27 04:43:52;;;;;;;71.97;42.60;;;;;;;;;;4939489;28;20178;-36
2022/10/27 04:46:18;;;;;;;75.00;44.63;;;;;;;;;;4928673;28;20171;-35
2022/10/27 04:48:44;;;;;;;74.70;42.47;;;;;;;;;;4930846;28;20175;-36
2022/10/27 04:51:10;;;;;;;74.17;43.00;;;;;;;;;;4938710;28;20191;-35
2022/10/27 04:53:36;;;;;;;72.77;43.83;;;;;;;;;;4935038;28;20174;-35
2022/10/27 04:56:02;;;;;;;81.63;44.83;;;;;;;;;;4946641;28;20182;-36
2022/10/27 04:58:29;;;;;;;80.83;44.80;;;;;;;;;;4934729;28;20197;-35
2022/10/27 05:00:55;;;;;;;81.33;43.80;;;;;;;;;;4938807;28;20179;-36
2022/10/27 05:03:21;;;;;;;78.67;43.77;;;;;;;;;;4944335;28;20178;-35
2022/10/27 05:05:47;;;;;;;84.93;46.47;;;;;;;;;;4942394;28;20182;-35
2022/10/27 05:08:13;;;;;;;78.37;44.00;;;;;;;;;;4943616;28;20170;-35
2022/10/27 05:10:39;;;;;;;77.73;44.30;;;;;;;;;;4946472;28;21243;-36
2022/10/27 05:13:05;;;;;;;72.43;43.83;;;;;;;;;;4938432;28;21053;-35
2022/10/27 05:15:31;;;;;;;70.77;43.63;;;;;;;;;;4939429;28;20167;-35
2022/10/27 05:17:57;;;;;;;82.83;44.67;;;;;;;;;;4936592;28;20283;-36
2022/10/27 05:20:24;;;;;;;95.40;48.10;;;;;;;;;;4936825;28;20195;-35
2022/10/27 05:22:50;;;;;;;76.13;45.73;;;;;;;;;;4944831;28;20170;-36
2022/10/27 05:25:16;;;;;;;89.70;49.83;;;;;;;;;;4950690;28;20253;-36
2022/10/27 05:27:42;;;;;;;89.33;48.93;;;;;;;;;;4938638;28;20179;-36
2022/10/27 05:30:10;;;;;;;92.70;51.30;;;;;;;;;;4944200;28;20194;-35
2022/10/27 05:32:36;;;;;;;83.53;48.70;;;;;;;;;;4944676;28;20190;-35
2022/10/27 05:35:03;;;;;;;88.43;46.90;;;;;;;;;;4943661;28;20182;-35
2022/10/27 05:37:29;;;;;;;86.47;47.60;;;;;;;;;;4943449;28;21040;-36
2022/10/27 05:39:55;;;;;;;88.63;49.43;;;;;;;;;;4942877;28;20269;-35
2022/10/27 05:42:21;;;;;;;86.43;48.50;;;;;;;;;;4941847;28;20853;-35
2022/10/27 05:44:47;;;;;;;82.87;47.10;;;;;;;;;;4944209;28;20174;-35
2022/10/27 05:47:13;;;;;;;102.57;52.17;;;;;;;;;;4946365;28;20627;-34
2022/10/27 05:49:39;;;;;;;87.60;48.27;;;;;;;;;;4945068;28;20257;-36
2022/10/27 05:52:05;;;;;;;98.67;52.13;;;;;;;;;;4938983;28;20187;-35
2022/10/27 05:54:31;;;;;;;91.77;51.63;;;;;;;;;;4945203;28;20174;-36
2022/10/27 05:56:57;;;;;;;89.40;48.80;;;;;;;;;;4942358;28;20864;-35
2022/10/27 05:59:23;;;;;;;100.93;52.67;;;;;;;;;;4942039;28;20596;-36
2022/10/27 06:01:50;;;;;;;97.60;52.97;;;;;;;;;;4940681;28;21105;-36
2022/10/27 06:04:16;;;;;;;96.53;51.60;;;;;;;;;;4943134;28;21066;-35
2022/10/27 06:06:42;;;;;;;104.40;55.40;;;;;;;;;;4940953;28;20246;-35
2022/10/27 06:09:08;;;;;;;111.70;57.70;;;;;;;;;;4945937;28;20174;-35
2022/10/27 06:11:34;;;;;;;107.90;56.57;;;;;;;;;;4940470;28;20179;-36
2022/10/27 06:14:00;;;;;;;98.60;53.27;;;;;;;;;;4944607;28;20190;-35
2022/10/27 06:16:26;;;;;;;104.10;53.67;;;;;;;;;;4945874;28;20182;-36
2022/10/27 06:18:52;;;;;;;108.93;56.00;;;;;;;;;;4942539;28;20205;-36
2022/10/27 06:21:21;;;;;;;107.67;56.97;;;;;;;;;;4940992;28;20477;-35
2022/10/27 06:23:48;;;;;;;107.70;55.13;;;;;;;;;;4936144;28;20445;-35
2022/10/27 06:26:14;;;;;;;111.17;56.90;;;;;;;;;;4940484;28;20281;-35
2022/10/27 06:28:40;;;;;;;92.77;53.30;;;;;;;;;;4938447;28;20194;-35
2022/10/27 06:31:06;;;;;;;107.73;55.53;;;;;;;;;;4935603;28;20307;-36
2022/10/27 06:33:32;;;;;;;107.87;57.83;;;;;;;;;;4937759;28;20374;-34
2022/10/27 06:35:58;;;;;;;112.70;56.13;;;;;;;;;;4941430;28;20588;-35
2022/10/27 06:38:24;;;;;;;121.70;59.07;;;;;;;;;;4939133;28;20257;-35
2022/10/27 06:40:50;;;;;;;122.73;58.60;;;;;;;;;;4937081;28;20187;-35
2022/10/27 06:43:16;;;;;;;104.60;53.13;;;;;;;;;;4938210;28;20477;-35
2022/10/27 06:45:46;;;;;;;104.37;55.60;;;;;;;;;;4940341;28;20175;-35
2022/10/27 06:48:12;;;;;;;94.37;51.67;;;;;;;;;;4931299;28;20302;-34
2022/10/27 06:50:38;;;;;;;112.10;57.73;;;;;;;;;;4931868;28;20615;-35
2022/10/27 06:53:04;;;;;;;105.30;55.03;;;;;;;;;;4938153;28;20627;-36
2022/10/27 06:55:30;;;;;;;93.20;53.00;;;;;;;;;;4939679;28;20489;-36
2022/10/27 06:57:57;;;;;;;99.80;52.67;;;;;;;;;;4935545;28;20187;-35
2022/10/27 07:00:23;;;;;;;104.97;54.60;;;;;;;;;;4930144;28;20207;-36
2022/10/27 07:02:49;;;;;;;95.80;52.67;;;;;;;;;;4925124;28;20191;-35
2022/10/27 07:05:16;;;;;;;95.67;51.93;;;;;;;;;;4948181;28;20552;-35
2022/10/27 07:07:48;;;;;;;106.43;55.40;;;;;;;;;;4938815;28;21046;-35
2022/10/27 07:10:15;;;;;;;101.80;57.53;;;;;;;;;;4935833;28;20552;-36
2022/10/27 07:12:56;;;;;;;106.10;57.67;;;;;;;;;;4931998;28;20290;-35
2022/10/27 07:15:32;;;;;;;102.97;55.23;;;;;;;;;;4941161;28;20190;-36
2022/10/27 07:17:59;;;;;;;94.30;53.20;;;;;;;;;;4936639;28;20917;-36
2022/10/27 07:20:26;;;;;;;103.00;54.63;;;;;;;;;;4942050;28;20215;-36
2022/10/27 07:22:52;;;;;;;82.47;49.23;;;;;;;;;;4944122;28;20183;-36
2022/10/27 07:25:18;;;;;;;97.03;51.40;;;;;;;;;;4937842;28;20898;-35
2022/10/27 07:27:52;;;;;;;101.23;53.83;;;;;;;;;;4932946;28;20167;-35
2022/10/27 07:30:18;;;;;;;88.97;50.37;;;;;;;;;;4941731;28;20221;-36
2022/10/27 07:32:44;;;;;;;96.40;52.93;;;;;;;;;;4946113;28;20302;-36
2022/10/27 07:35:10;;;;;;;102.57;53.33;;;;;;;;;;4939573;28;20194;-36
2022/10/27 07:37:41;;;;;;;102.50;54.53;;;;;;;;;;4941994;28;20185;-35
2022/10/27 07:40:07;;;;;;;97.20;52.90;;;;;;;;;;4946516;28;20977;-35
2022/10/27 07:42:40;;;;;;;88.13;51.53;;;;;;;;;;4946921;28;20349;-36
2022/10/27 07:45:07;;;;;;;93.33;49.93;;;;;;;;;;4936748;28;20548;-36
2022/10/27 07:47:33;;;;;;;75.10;46.03;;;;;;;;;;4944743;28;20255;-36
2022/10/27 07:49:59;;;;;;;77.50;47.97;;;;;;;;;;4946560;28;20175;-35
2022/10/27 07:52:25;;;;;;;81.23;45.57;;;;;;;;;;4939595;28;20972;-36
2022/10/27 07:54:51;;;;;;;82.77;45.30;;;;;;;;;;4940568;28;21270;-35
2022/10/27 07:57:17;;;;;;;82.47;44.93;;;;;;;;;;4943362;28;20174;-36
2022/10/27 07:59:43;;;;;;;64.30;39.93;;;;;;;;;;4943738;28;20213;-35
2022/10/27 08:02:12;;;;;;;81.10;42.27;;;;;;;;;;4943534;28;20975;-35
2022/10/27 08:04:38;;;;;;;78.77;44.33;;;;;;;;;;4941227;28;20913;-36
2022/10/27 08:07:04;;;;;;;78.73;43.47;;;;;;;;;;4947421;28;20690;-36
2022/10/27 08:09:30;;;;;;;70.73;41.33;;;;;;;;;;4944917;28;20201;-36
2022/10/27 08:11:56;;;;;;;64.27;39.77;;;;;;;;;;4940180;28;20179;-35
2022/10/27 08:14:22;;;;;;;74.67;42.80;;;;;;;;;;4942241;28;20270;-35
2022/10/27 08:16:48;;;;;;;81.10;43.03;;;;;;;;;;4946147;28;20175;-36
2022/10/27 08:19:15;;;;;;;65.77;37.03;;;;;;;;;;4943156;28;20182;-35
2022/10/27 08:21:41;;;;;;;64.03;38.10;;;;;;;;;;4939642;28;20540;-35
2022/10/27 08:24:07;;;;;;;73.60;40.23;;;;;;;;;;4943312;28;20182;-35
2022/10/27 08:26:33;;;;;;;77.07;40.70;;;;;;;;;;4948861;28;20728;-35
2022/10/27 08:28:59;;;;;;;71.90;39.77;;;;;;;;;;4946143;28;20198;-35
2022/10/27 08:31:25;;;;;;;71.27;40.03;;;;;;;;;;4945793;28;20174;-36
2022/10/27 08:33:52;;;;;;;67.43;39.73;;;;;;;;;;4942151;28;20256;-36
2022/10/27 08:36:18;;;;;;;79.80;41.10;;;;;;;;;;4946442;28;20225;-36
2022/10/27 08:38:44;;;;;;;63.37;37.57;;;;;;;;;;4948508;28;20207;-36
2022/10/27 08:41:11;;;;;;;61.57;39.23;;;;;;;;;;4951719;28;20870;-36
2022/10/27 08:43:56;;;;;;;55.60;35.93;;;;;;;;;;4948377;28;20178;-35
2022/10/27 08:46:27;;;;;;;59.50;34.00;;;;;;;;;;4947431;28;20241;-35
2022/10/27 08:48:54;;;;;;;56.47;34.00;;;;;;;;;;4945003;28;20194;-36
2022/10/27 08:51:22;;;;;;;51.17;33.77;;;;;;;;;;4948056;28;20186;-36
2022/10/27 08:53:50;;;;;;;57.83;32.57;;;;;;;;;;4951359;28;20210;-36
2022/10/27 08:56:16;;;;;;;53.10;33.97;;;;;;;;;;4948322;28;20189;-35
2022/10/27 08:58:43;;;;;;;48.37;30.63;;;;;;;;;;4942219;28;20521;-36
2022/10/27 09:01:09;;;;;;;57.17;33.00;;;;;;;;;;4949375;28;20171;-36
2022/10/27 09:03:45;;;;;;;59.43;32.97;;;;;;;;;;4941586;28;20502;-36
2022/10/27 09:06:20;;;;;;;50.97;30.70;;;;;;;;;;4947686;28;20617;-36
2022/10/27 09:09:06;;;;;;;58.53;32.37;;;;;;;;;;4940850;28;20178;-35
2022/10/27 09:11:46;;;;;;;47.93;30.07;;;;;;;;;;4939618;28;20184;-36
2022/10/27 09:14:12;;;;;;;51.93;30.40;;;;;;;;;;4946726;28;20182;-36
2022/10/27 09:16:42;;;;;;;49.13;30.53;;;;;;;;;;4945090;28;20175;-36
2022/10/27 09:19:13;;;;;;;50.73;29.13;;;;;;;;;;4943968;28;20772;-35
2022/10/27 09:21:41;;;;;;;55.90;29.87;;;;;;;;;;4942927;28;21187;-36
2022/10/27 09:24:12;;;;;;;51.93;31.80;;;;;;;;;;4946813;28;20175;-36
2022/10/27 09:26:39;;;;;;;54.43;31.43;;;;;;;;;;4942124;28;20687;-35
2022/10/27 09:29:18;;;;;;;57.47;33.43;;;;;;;;;;4943216;28;20281;-36
2022/10/27 09:31:49;;;;;;;51.17;31.83;;;;;;;;;;4949513;28;20162;-35
2022/10/27 09:34:30;;;;;;;55.40;33.10;;;;;;;;;;4948191;28;20737;-35
2022/10/27 09:36:57;;;;;;;54.63;31.93;;;;;;;;;;4943198;28;20201;-36
2022/10/27 09:39:23;;;;;;;60.77;33.10;;;;;;;;;;4943317;28;20306;-35
2022/10/27 09:41:49;;;;;;;59.60;33.07;;;;;;;;;;4941854;28;20171;-35
2022/10/27 09:44:22;;;;;;;56.00;32.50;;;;;;;;;;4944486;28;20175;-35
2022/10/27 09:46:53;;;;;;;66.03;34.80;;;;;;;;;;4944353;28;20170;-36
2022/10/27 09:49:21;;;;;;;57.47;33.03;;;;;;;;;;4944875;28;20277;-36
2022/10/27 09:51:53;;;;;;;55.57;35.43;;;;;;;;;;4948383;28;20262;-36
2022/10/27 09:54:31;;;;;;;64.50;36.33;;;;;;;;;;4949693;28;20298;-36
2022/10/27 09:57:12;;;;;;;58.60;35.73;;;;;;;;;;4948530;28;20201;-36
2022/10/27 09:59:39;;;;;;;57.57;32.63;;;;;;;;;;4940592;28;20203;-36
2022/10/27 10:02:20;;;;;;;55.60;33.47;;;;;;;;;;4948016;28;20182;-35
2022/10/27 10:04:47;;;;;;;53.33;31.90;;;;;;;;;;4948097;28;20237;-36
2022/10/27 10:07:31;;;;;;;56.73;33.53;;;;;;;;;;4942715;28;20301;-35
2022/10/27 10:10:01;;;;;;;55.03;32.17;;;;;;;;;;4948626;28;20610;-36
2022/10/27 10:12:28;;;;;;;60.83;33.37;;;;;;;;;;4943257;28;20175;-36
2022/10/27 10:15:14;;;;;;;55.87;33.73;;;;;;;;;;4942586;28;20261;-36
2022/10/27 10:17:50;;;;;;;57.77;34.50;;;;;;;;;;4946238;28;20186;-35
2022/10/27 10:20:31;;;;;;;54.77;33.27;;;;;;;;;;4948278;28;20233;-35
2022/10/27 10:22:57;;;;;;;50.67;32.33;;;;;;;;;;4943379;28;20245;-36
2022/10/27 10:25:26;;;;;;;61.83;35.37;;;;;;;;;;4942055;28;20582;-36
2022/10/27 10:27:57;;;;;;;62.30;35.43;;;;;;;;;;4937736;28;20234;-36
2022/10/27 10:30:23;;;;;;;59.50;34.30;;;;;;;;;;4946423;28;20196;-36
2022/10/27 10:32:55;;;;;;;59.67;34.20;;;;;;;;;;4946076;28;20187;-35
2022/10/27 10:35:40;;;;;;;60.30;37.00;;;;;;;;;;4945721;28;20179;-36
2022/10/27 10:38:24;;;;;;;64.23;36.97;;;;;;;;;;4949016;28;20185;-36
2022/10/27 10:40:59;;;;;;;63.00;36.50;;;;;;;;;;4943318;28;20179;-36
2022/10/27 10:43:25;;;;;;;58.10;34.50;;;;;;;;;;4935820;28;20590;-36
2022/10/27 10:45:51;;;;;;;63.90;36.00;;;;;;;;;;4945221;28;20186;-36
2022/10/27 10:48:20;;;;;;;65.57;34.93;;;;;;;;;;4944961;28;20707;-36
2022/10/27 10:50:49;;;;;;;56.47;35.03;;;;;;;;;;4942215;28;20409;-36
2022/10/27 10:53:21;;;;;;;57.13;35.80;;;;;;;;;;4944468;28;20752;-36
2022/10/27 10:55:47;;;;;;;57.93;34.87;;;;;;;;;;4942404;28;20856;-36
2022/10/27 10:58:18;;;;;;;53.13;34.67;;;;;;;;;;4941361;28;20261;-36
2022/10/27 11:00:52;;;;;;;64.20;36.70;;;;;;;;;;4941143;28;20187;-36
2022/10/27 11:03:19;;;;;;;61.87;37.37;;;;;;;;;;4946030;28;20868;-36
2022/10/27 11:05:52;;;;;;;56.33;36.07;;;;;;;;;;4941234;28;20211;-36
2022/10/27 11:08:22;;;;;;;56.60;35.90;;;;;;;;;;4945521;28;20186;-35
2022/10/27 11:10:49;;;;;;;63.77;37.03;;;;;;;;;;4948570;28;20711;-36
2022/10/27 11:13:31;;;;;;;63.40;38.33;;;;;;;;;;4941432;28;20182;-36
2022/10/27 11:16:01;;;;;;;67.07;38.00;;;;;;;;;;4943169;28;20182;-36
2022/10/27 11:18:42;;;;;;;60.40;37.83;;;;;;;;;;4947483;28;20633;-37
2022/10/27 11:21:21;;;;;;;69.53;38.10;;;;;;;;;;4947268;28;20170;-36
2022/10/27 11:23:52;;;;;;;63.20;38.77;;;;;;;;;;4942245;28;20638;-36
2022/10/27 11:26:20;;;;;;;57.80;36.03;;;;;;;;;;4946327;28;20178;-36
2022/10/27 11:28:54;;;;;;;61.27;38.23;;;;;;;;;;4944638;28;20934;-36
2022/10/27 11:31:43;;;;;;;62.80;38.53;;;;;;;;;;4945531;28;20647;-36
2022/10/27 11:34:09;;;;;;;67.60;37.33;;;;;;;;;;4939435;28;21027;-36
2022/10/27 11:36:51;;;;;;;57.67;35.73;;;;;;;;;;4960481;28;20206;-36
2022/10/27 11:39:30;;;;;;;60.70;37.90;;;;;;;;;;4947063;28;20901;-36
2022/10/27 11:42:03;;;;;;;67.67;36.83;;;;;;;;;;4944310;28;20190;-36
2022/10/27 11:44:38;;;;;;;55.57;33.60;;;;;;;;;;4936873;28;20524;-37
2022/10/27 11:47:04;;;;;;;56.97;34.20;;;;;;;;;;4944858;28;20175;-36
2022/10/27 11:49:33;;;;;;;65.87;37.20;;;;;;;;;;4945526;28;20186;-36
2022/10/27 11:52:06;;;;;;;68.30;35.60;;;;;;;;;;4940302;28;20696;-36
2022/10/27 11:54:32;;;;;;;64.10;35.10;;;;;;;;;;4945841;28;20591;-36
2022/10/27 11:57:16;;;;;;;66.20;35.40;;;;;;;;;;4944810;28;20466;-36
2022/10/27 11:59:42;;;;;;;59.47;34.30;;;;;;;;;;4940478;28;20463;-36
2022/10/27 12:02:38;;;;;;;57.60;33.23;;;;;;;;;;4941486;28;20398;-36
2022/10/27 12:05:07;;;;;;;61.10;33.17;;;;;;;;;;4890752;28;20566;-36
2022/10/27 12:07:36;;;;;;;50.27;29.33;;;;;;;;;;4945703;28;20155;-36
2022/10/27 12:10:02;;;;;;;58.97;33.30;;;;;;;;;;4942126;28;20190;-36
2022/10/27 12:12:35;;;;;;;54.13;33.13;;;;;;;;;;4950417;28;20789;-36
2022/10/27 12:15:10;;;;;;;54.20;34.20;;;;;;;;;;4947565;28;20710;-36
2022/10/27 12:17:41;;;;;;;61.23;35.93;;;;;;;;;;4948195;28;20481;-36
2022/10/27 12:20:10;;;;;;;63.53;34.20;;;;;;;;;;4944694;28;20198;-36
2022/10/27 12:22:41;;;;;;;57.13;35.13;;;;;;;;;;4948536;28;20162;-36
2022/10/27 12:25:16;;;;;;;69.30;35.77;;;;;;;;;;4950389;28;20174;-35
2022/10/27 12:27:47;;;;;;;66.37;35.47;;;;;;;;;;4941763;28;20555;-36
2022/10/27 12:30:15;;;;;;;59.77;33.77;;;;;;;;;;4945813;28;20187;-36
2022/10/27 12:32:49;;;;;;;61.03;33.47;;;;;;;;;;4947015;28;20338;-35
2022/10/27 12:35:15;;;;;;;70.43;36.10;;;;;;;;;;4943796;28;20286;-37
2022/10/27 12:37:54;;;;;;;69.73;36.77;;;;;;;;;;4923965;28;20333;-36
2022/10/27 12:40:23;;;;;;;56.57;34.00;;;;;;;;;;4927360;28;20699;-36
2022/10/27 12:43:08;;;;;;;63.57;35.93;;;;;;;;;;4932343;28;21273;-36
2022/10/27 12:45:53;;;;;;;58.97;32.77;;;;;;;;;;4925293;28;20921;-36
2022/10/27 12:48:22;;;;;;;60.07;32.23;;;;;;;;;;4925145;28;20289;-36
2022/10/27 12:50:53;;;;;;;60.73;31.93;;;;;;;;;;4932119;28;20238;-36
2022/10/27 12:53:25;;;;;;;56.30;32.93;;;;;;;;;;4936186;28;20171;-36
2022/10/27 12:56:09;;;;;;;57.60;32.10;;;;;;;;;;4934618;28;21012;-36
2022/10/27 12:58:41;;;;;;;59.70;34.33;;;;;;;;;;4935160;28;20210;-36
2022/10/27 13:01:26;;;;;;;52.60;34.17;;;;;;;;;;4934047;28;20175;-36
2022/10/27 13:03:52;;;;;;;57.23;32.03;;;;;;;;;;4929988;28;20724;-36
2022/10/27 13:06:18;;;;;;;48.60;29.77;;;;;;;;;;4931681;28;20179;-36
2022/10/27 13:09:04;;;;;;;52.53;31.00;;;;;;;;;;4934471;28;20642;-36
2022/10/27 13:11:30;;;;;;;54.77;32.80;;;;;;;;;;4930792;28;20827;-36
2022/10/27 13:13:56;;;;;;;49.10;28.60;;;;;;;;;;4936631;28;20603;-36
2022/10/27 13:16:25;;;;;;;53.37;30.20;;;;;;;;;;4948130;28;20189;-36
2022/10/27 13:19:04;;;;;;;53.93;29.20;;;;;;;;;;4942163;28;20412;-36
2022/10/27 13:21:48;;;;;;;56.20;30.00;;;;;;;;;;4945175;28;21233;-36
2022/10/27 13:24:20;;;;;;;45.33;28.43;;;;;;;;;;4948698;28;20265;-36
2022/10/27 13:27:07;;;;;;;50.67;29.17;;;;;;;;;;4943576;28;20756;-36
2022/10/27 13:29:35;;;;;;;58.30;32.57;;;;;;;;;;4924632;28;20205;-36
2022/10/27 13:32:25;;;;;;;44.30;28.57;;;;;;;;;;4944646;28;20217;-37
2022/10/27 13:35:11;;;;;;;49.03;30.97;;;;;;;;;;4944697;28;20525;-36
2022/10/27 13:37:43;;;;;;;62.57;33.53;;;;;;;;;;4940237;28;20190;-37
2022/10/27 13:40:19;;;;;;;52.07;31.93;;;;;;;;;;4946746;28;20253;-36
2022/10/27 13:42:55;;;;;;;59.57;32.93;;;;;;;;;;4946256;28;20175;-36
2022/10/27 13:45:27;;;;;;;54.57;30.43;;;;;;;;;;4943436;28;20210;-37
2022/10/27 13:48:14;;;;;;;46.97;27.57;;;;;;;;;;4947976;28;20212;-36
2022/10/27 13:50:41;;;;;;;47.70;28.40;;;;;;;;;;4945593;28;20174;-36
2022/10/27 13:53:16;;;;;;;48.53;26.77;;;;;;;;;;4943381;28;20194;-36
2022/10/27 13:55:42;;;;;;;46.73;25.90;;;;;;;;;;4948175;28;20293;-37
2022/10/27 13:58:18;;;;;;;39.70;22.73;;;;;;;;;;4945203;28;20187;-36
2022/10/27 14:00:50;;;;;;;43.17;24.27;;;;;;;;;;4942871;28;20248;-37
2022/10/27 14:03:35;;;;;;;43.73;26.17;;;;;;;;;;4940409;28;20404;-36
2022/10/27 14:06:01;;;;;;;39.20;23.33;;;;;;;;;;4948109;28;20225;-37
2022/10/27 14:08:29;;;;;;;46.63;26.40;;;;;;;;;;4944899;28;20486;-36
2022/10/27 14:10:56;;;;;;;58.43;29.60;;;;;;;;;;4943624;28;20182;-36
2022/10/27 14:13:37;;;;;;;48.03;29.97;;;;;;;;;;4945208;28;20175;-36
2022/10/27 14:16:04;;;;;;;38.97;25.00;;;;;;;;;;4942838;28;20174;-36
2022/10/27 14:18:37;;;;;;;53.43;31.30;;;;;;;;;;4942717;28;20896;-36
2022/10/27 14:21:09;;;;;;;58.67;30.23;;;;;;;;;;4941183;28;20747;-36
2022/10/27 14:23:35;;;;;;;53.07;28.70;;;;;;;;;;4946442;28;20203;-36
2022/10/27 14:26:22;;;;;;;48.17;28.30;;;;;;;;;;4945503;28;20207;-36
2022/10/27 14:28:48;;;;;;;63.47;28.93;;;;;;;;;;4942315;28;20479;-37
2022/10/27 14:31:18;;;;;;;50.73;27.67;;;;;;;;;;4943401;28;20293;-36